Time;durP1;ratioP1;P1;durP2;ratioP2;P2;SDS_P1;SDS_P2;PMS_P1;PMS_P2;Temp;Humidity;BMP_temperature;BMP_pressure;BME280_temperature;BME280_humidity;BME280_pressure;Samples;Min_cycle;Max_cycle;Signal;HPM_P1;HPM_P2
2021/06/04 00:01:23;;;;;;;;;23.00;20.25;;;;;10.94;88.46;100384.22;3587725;40;14318;-50
2021/06/04 00:03:52;;;;;;;;;15.75;15.75;;;;;11.13;87.92;100387.66;3587713;40;14119;-49
2021/06/04 00:06:20;;;;;;;;;18.00;14.25;;;;;11.60;86.00;100386.94;3596340;40;14600;-51
2021/06/04 00:08:49;;;;;;;;;18.00;14.75;;;;;11.65;85.04;100376.78;3589733;39;14238;-48
2021/06/04 00:11:39;;;;;;;;;17.00;15.00;;;;;11.71;85.67;100375.56;3588849;40;14061;-50
2021/06/04 00:14:32;;;;;;;;;19.75;15.75;;;;;11.97;84.05;100374.16;3597413;39;14021;-49
2021/06/04 00:17:16;;;;;;;;;15.25;15.00;;;;;12.01;84.00;100375.75;3596450;39;14017;-50
2021/06/04 00:19:47;;;;;;;;;14.75;13.75;;;;;12.08;83.68;100371.75;3597259;40;14232;-48
2021/06/04 00:22:23;;;;;;;;;12.00;12.00;;;;;11.89;84.59;100379.09;3596003;40;14135;-49
2021/06/04 00:24:55;;;;;;;;;15.00;13.50;;;;;11.82;84.71;100386.63;3597817;39;14127;-51
2021/06/04 00:27:24;;;;;;;;;17.75;15.75;;;;;10.97;88.67;100376.84;3590270;39;14143;-50
2021/06/04 00:29:51;;;;;;;;;18.25;14.00;;;;;11.24;88.21;100383.53;3597044;39;14059;-47
2021/06/04 00:32:22;;;;;;;;;14.75;13.75;;;;;10.81;88.29;100383.09;3591549;39;14279;-51
2021/06/04 00:34:52;;;;;;;;;19.75;17.00;;;;;11.07;87.38;100381.75;3596701;39;14047;-50
2021/06/04 00:37:20;;;;;;;;;20.00;18.25;;;;;10.88;88.32;100371.09;3591713;39;14040;-48
2021/06/04 00:39:49;;;;;;;;;17.00;13.00;;;;;10.80;88.74;100381.38;3595186;39;14040;-48
2021/06/04 00:42:26;;;;;;;;;18.00;18.00;;;;;10.13;90.87;100386.41;3588076;40;14099;-52
2021/06/04 00:44:59;;;;;;;;;17.50;16.00;;;;;11.31;86.61;100380.44;3587759;39;10726;-50
2021/06/04 00:47:26;;;;;;;;;17.50;15.25;;;;;10.76;86.72;100373.44;3587646;40;14597;-50
2021/06/04 00:49:54;;;;;;;;;19.50;15.25;;;;;10.57;89.66;100387.91;3587454;40;14049;-48
2021/06/04 00:52:28;;;;;;;;;14.00;14.00;;;;;10.84;88.48;100389.16;3586424;40;14236;-49
2021/06/04 00:54:58;;;;;;;;;21.00;15.50;;;;;10.25;91.64;100393.88;3592288;40;14554;-50
2021/06/04 00:57:28;;;;;;;;;22.67;21.33;;;;;10.33;91.05;100399.78;3595698;39;14047;-51
2021/06/04 01:00:02;;;;;;;;;18.00;16.00;;;;;11.07;90.04;100397.88;3596056;40;10361;-50
2021/06/04 01:02:31;;;;;;;;;17.75;17.00;;;;;11.05;89.06;100397.94;3592295;40;10951;-49
2021/06/04 01:04:59;;;;;;;;;23.00;19.75;;;;;10.91;90.13;100398.66;3587375;40;10914;-51
2021/06/04 01:07:42;;;;;;;;;22.75;20.00;;;;;11.52;88.87;100393.69;3590119;40;14587;-47
2021/06/04 01:10:18;;;;;;;;;18.50;18.50;;;;;11.33;89.20;100396.50;3592612;40;10705;-50
2021/06/04 01:12:56;;;;;;;;;17.00;13.75;;;;;12.07;86.76;100401.44;3595938;40;14071;-51
2021/06/04 01:15:36;;;;;;;;;21.75;20.00;;;;;12.25;85.56;100394.16;3586993;40;14075;-48
2021/06/04 01:18:41;;;;;;;;;22.00;18.50;;;;;12.35;85.95;100402.53;3592155;40;14715;-47
2021/06/04 01:21:22;;;;;;;;;2.00;0.00;;;;;12.56;83.20;100401.31;3595116;39;14061;-47
2021/06/04 01:24:09;;;;;;;;;17.75;17.25;;;;;12.59;84.56;100400.28;3586285;40;13951;-48
2021/06/04 01:26:50;;;;;;;;;99.50;82.00;;;;;12.25;85.41;100388.75;3586497;40;14070;-50
2021/06/04 01:29:33;;;;;;;;;56.00;45.33;;;;;12.17;87.03;100401.78;3588475;40;9802;-47
2021/06/04 01:32:25;;;;;;;;;23.50;19.00;;;;;12.80;83.83;100399.00;3591547;40;10511;-48
2021/06/04 01:35:03;;;;;;;;;26.25;21.00;;;;;12.70;82.69;100401.38;3592445;40;14230;-50
2021/06/04 01:37:32;;;;;;;;;24.25;21.25;;;;;12.99;82.24;100400.59;3588859;40;14272;-47
2021/06/04 01:40:13;;;;;;;;;20.00;19.00;;;;;12.84;83.06;100394.28;3583101;40;14046;-48
2021/06/04 01:42:45;;;;;;;;;21.50;18.75;;;;;12.70;84.92;100397.81;3594093;40;14086;-51
2021/06/04 01:45:24;;;;;;;;;20.50;18.00;;;;;12.83;83.43;100390.75;3578078;40;14176;-50
2021/06/04 01:48:06;;;;;;;;;18.25;15.50;;;;;12.83;82.46;100401.50;3588034;40;14127;-48
2021/06/04 01:51:28;;;;;;;;;21.00;18.75;;;;;12.95;83.25;100398.09;3590355;40;14075;-50
2021/06/04 01:54:22;;;;;;;;;21.00;19.75;;;;;13.23;80.59;100399.09;3584995;40;14052;-50
2021/06/04 01:57:01;;;;;;;;;19.50;16.00;;;;;13.31;79.88;100399.53;3587797;39;14075;-49
2021/06/04 01:59:34;;;;;;;;;20.75;14.75;;;;;13.37;79.33;100399.16;3592571;40;14254;-50
2021/06/04 02:02:03;;;;;;;;;17.25;15.25;;;;;13.06;81.77;100392.06;3585826;40;14294;-50
2021/06/04 02:04:50;;;;;;;;;21.75;20.00;;;;;13.10;81.60;100396.28;3585835;40;14066;-52
2021/06/04 02:07:22;;;;;;;;;21.00;18.00;;;;;12.93;82.85;100396.47;3585935;40;14084;-50
2021/06/04 02:09:50;;;;;;;;;21.00;18.25;;;;;13.17;82.34;100399.50;3586023;40;14044;-49
2021/06/04 02:12:18;;;;;;;;;20.50;19.00;;;;;13.02;83.09;100395.88;3594324;39;14233;-48
2021/06/04 02:15:04;;;;;;;;;14.25;14.25;;;;;13.06;82.80;100396.56;3587531;40;14076;-50
2021/06/04 02:17:33;;;;;;;;;22.25;18.50;;;;;13.22;82.21;100397.38;3586723;40;14042;-52
2021/06/04 02:20:28;;;;;;;;;18.25;18.25;;;;;12.87;84.19;100394.97;3592392;40;14022;-50
2021/06/04 02:23:45;;;;;;;;;18.00;13.25;;;;;12.83;84.15;100396.13;3595833;40;14277;-51
2021/06/04 02:26:24;;;;;;;;;22.00;17.25;;;;;13.03;84.10;100399.44;3586149;40;14019;-50
2021/06/04 02:29:23;;;;;;;;;21.50;20.00;;;;;13.04;83.46;100399.38;3593981;40;14254;-48
2021/06/04 02:32:15;;;;;;;;;21.75;18.00;;;;;13.08;83.09;100400.03;3588104;39;14043;-48
2021/06/04 02:34:57;;;;;;;;;19.25;16.50;;;;;12.93;84.14;100402.72;3595681;39;14537;-51
2021/06/04 02:37:40;;;;;;;;;23.75;17.25;;;;;13.35;82.57;100408.31;3596511;39;14037;-50
2021/06/04 02:40:19;;;;;;;;;16.75;16.00;;;;;13.21;82.94;100401.03;3595155;39;14257;-49
2021/06/04 02:43:00;;;;;;;;;19.00;17.50;;;;;13.10;83.59;100406.22;3596547;39;14090;-51
2021/06/04 02:45:41;;;;;;;;;20.75;15.75;;;;;13.05;84.33;100411.88;3593751;40;14057;-51
2021/06/04 02:48:18;;;;;;;;;24.25;20.00;;;;;13.02;83.35;100405.81;3586641;40;14029;-49
2021/06/04 02:51:01;;;;;;;;;21.75;17.75;;;;;12.97;84.80;100406.06;3586988;40;14064;-50
2021/06/04 02:53:48;;;;;;;;;20.50;16.50;;;;;12.54;86.74;100411.31;3592661;40;14268;-49
2021/06/04 02:56:40;;;;;;;;;20.25;16.75;;;;;12.91;85.20;100415.41;3595663;39;14047;-49
2021/06/04 02:59:10;;;;;;;;;21.50;18.50;;;;;13.03;84.75;100423.72;3587148;39;14223;-50
2021/06/04 03:01:47;;;;;;;;;21.25;18.00;;;;;13.04;84.04;100425.47;3592814;40;14581;-48
2021/06/04 03:04:17;;;;;;;;;23.75;17.75;;;;;13.11;84.07;100422.31;3577421;40;14055;-51
2021/06/04 03:06:55;;;;;;;;;27.25;22.00;;;;;13.00;83.55;100421.19;3594065;39;14107;-50
2021/06/04 03:09:43;;;;;;;;;20.50;16.75;;;;;12.94;84.25;100423.31;3595944;39;14061;-49
2021/06/04 03:12:34;;;;;;;;;21.00;18.25;;;;;12.51;86.55;100423.13;3596242;40;14066;-52
2021/06/04 03:15:11;;;;;;;;;16.00;16.00;;;;;12.51;87.24;100422.28;3588522;39;14050;-51
2021/06/04 03:17:38;;;;;;;;;20.50;19.50;;;;;12.72;86.20;100422.84;3587831;40;14233;-51
2021/06/04 03:20:12;;;;;;;;;23.50;18.50;;;;;12.68;87.08;100426.66;3588393;40;14016;-49
2021/06/04 03:22:42;;;;;;;;;19.25;19.25;;;;;12.76;87.63;100424.38;3590425;39;14623;-48
2021/06/04 03:25:25;;;;;;;;;22.50;18.50;;;;;13.08;85.23;100433.25;3587915;40;14684;-49
2021/06/04 03:27:53;;;;;;;;;22.00;17.00;;;;;13.16;83.55;100431.00;3588399;39;14069;-49
2021/06/04 03:30:31;;;;;;;;;24.50;17.50;;;;;13.03;85.55;100429.97;3589470;40;14761;-49
2021/06/04 03:33:00;;;;;;;;;25.75;20.75;;;;;12.99;86.46;100427.56;3588783;40;14599;-52
2021/06/04 03:35:29;;;;;;;;;17.75;16.00;;;;;13.25;84.98;100428.69;3590419;40;14074;-47
2021/06/04 03:37:58;;;;;;;;;18.50;18.50;;;;;13.47;83.28;100433.66;3590994;40;14085;-48
2021/06/04 03:40:29;;;;;;;;;22.75;19.75;;;;;13.35;83.18;100441.56;3590088;40;14074;-48
2021/06/04 03:43:00;;;;;;;;;22.00;18.50;;;;;13.50;83.16;100437.03;3597552;39;14181;-51
2021/06/04 03:45:34;;;;;;;;;28.50;19.00;;;;;13.64;82.65;100438.91;3592973;39;14097;-52
2021/06/04 03:48:04;;;;;;;;;16.50;14.50;;;;;13.81;80.73;100433.28;3597019;40;14140;-48
2021/06/04 03:50:31;;;;;;;;;22.50;18.25;;;;;13.76;82.68;100440.81;3593522;39;14150;-48
2021/06/04 03:52:59;;;;;;;;;22.25;18.50;;;;;13.80;82.78;100445.06;3592236;40;14068;-48
2021/06/04 03:55:28;;;;;;;;;20.50;17.00;;;;;13.79;81.96;100443.31;3588288;40;14061;-49
2021/06/04 03:57:55;;;;;;;;;16.75;16.25;;;;;14.09;80.31;100441.47;3587749;39;14076;-51
2021/06/04 04:00:41;;;;;;;;;23.50;20.50;;;;;14.28;79.78;100442.88;3592132;40;14069;-49
2021/06/04 04:03:11;;;;;;;;;19.00;17.50;;;;;14.13;80.51;100438.47;3588344;40;14157;-48
2021/06/04 04:05:39;;;;;;;;;22.50;18.00;;;;;14.48;80.15;100432.59;3597533;40;14136;-53
2021/06/04 04:08:09;;;;;;;;;19.50;17.50;;;;;14.51;79.71;100435.13;3587255;40;14057;-49
2021/06/04 04:10:37;;;;;;;;;19.00;16.75;;;;;14.54;80.16;100431.38;3587362;40;14064;-52
2021/06/04 04:13:05;;;;;;;;;23.75;17.00;;;;;14.73;79.65;100439.13;3587164;40;14062;-52
2021/06/04 04:15:33;;;;;;;;;24.50;18.00;;;;;14.71;79.28;100440.06;3587606;40;14811;-52
2021/06/04 04:18:03;;;;;;;;;22.50;18.50;;;;;14.60;81.33;100445.34;3595393;39;14637;-51
2021/06/04 04:20:38;;;;;;;;;23.50;17.50;;;;;14.69;82.05;100447.44;3587308;39;14091;-48
2021/06/04 04:23:09;;;;;;;;;20.75;20.00;;;;;14.36;86.35;100449.63;3587874;40;14097;-48
2021/06/04 04:25:41;;;;;;;;;18.75;16.50;;;;;14.25;86.00;100448.50;3587842;40;14071;-48
2021/06/04 04:28:14;;;;;;;;;20.00;16.50;;;;;14.53;84.33;100446.72;3596406;40;14902;-49
2021/06/04 04:30:42;;;;;;;;;22.75;20.25;;;;;14.36;85.01;100439.69;3589537;39;14795;-51
2021/06/04 04:33:10;;;;;;;;;19.75;18.25;;;;;14.31;85.56;100443.66;3589079;40;14148;-49
2021/06/04 04:35:38;;;;;;;;;22.50;20.00;;;;;14.59;84.20;100438.22;3595060;39;14072;-51
2021/06/04 04:38:09;;;;;;;;;21.75;18.50;;;;;15.17;81.71;100446.94;3588683;40;14036;-49
2021/06/04 04:40:39;;;;;;;;;24.50;19.00;;;;;15.28;82.09;100448.91;3594475;39;14072;-51
2021/06/04 04:43:10;;;;;;;;;18.50;16.25;;;;;15.73;79.77;100449.41;3587042;40;14532;-53
2021/06/04 04:45:38;;;;;;;;;22.00;16.50;;;;;18.06;71.61;100453.53;3595249;39;14042;-49
2021/06/04 04:48:07;;;;;;;;;15.00;15.00;;;;;16.77;73.53;100458.09;3586745;40;14500;-49
2021/06/04 04:50:37;;;;;;;;;15.00;13.00;;;;;16.36;69.92;100459.28;3589322;40;14251;-49
2021/06/04 04:53:06;;;;;;;;;21.25;17.75;;;;;16.34;78.78;100447.66;3590520;39;15050;-50
2021/06/04 04:55:39;;;;;;;;;20.00;16.00;;;;;16.53;78.14;100454.44;3594874;39;14040;-48
2021/06/04 04:58:08;;;;;;;;;18.50;16.75;;;;;16.80;75.89;100455.16;3593988;40;14037;-50
2021/06/04 05:00:36;;;;;;;;;14.25;14.00;;;;;16.72;73.17;100460.25;3592382;40;14130;-50
2021/06/04 05:03:05;;;;;;;;;16.00;15.00;;;;;17.00;73.01;100458.19;3593810;39;14634;-51
2021/06/04 05:05:33;;;;;;;;;11.25;11.25;;;;;17.29;66.37;100454.09;3587711;40;14078;-49
2021/06/04 05:08:01;;;;;;;;;26.25;25.50;;;;;17.42;65.37;100450.44;3594849;39;14083;-52
2021/06/04 05:10:29;;;;;;;;;16.75;9.00;;;;;17.52;63.47;100451.44;3593879;40;14059;-50
2021/06/04 05:12:56;;;;;;;;;11.25;8.75;;;;;17.75;61.78;100458.66;3592733;40;13963;-52
2021/06/04 05:15:30;;;;;;;;;10.00;10.00;;;;;18.01;59.86;100461.19;3595838;40;13954;-50
2021/06/04 05:17:58;;;;;;;;;12.25;11.25;;;;;18.07;60.56;100463.41;3587717;39;13979;-51
2021/06/04 05:20:26;;;;;;;;;12.50;11.50;;;;;18.28;61.03;100463.50;3589126;40;13946;-52
2021/06/04 05:22:57;;;;;;;;;14.25;11.75;;;;;18.24;57.96;100466.59;3596835;39;14002;-49
2021/06/04 05:25:40;;;;;;;;;14.00;11.50;;;;;18.19;59.36;100469.69;3596825;39;14150;-53
2021/06/04 05:28:09;;;;;;;;;14.00;12.50;;;;;18.32;60.79;100475.00;3597460;39;14178;-51
2021/06/04 05:30:44;;;;;;;;;10.25;10.25;;;;;18.43;59.37;100461.38;3588419;39;13940;-52
2021/06/04 05:33:22;;;;;;;;;11.75;11.50;;;;;18.47;59.27;100468.31;3586881;40;14005;-52
2021/06/04 05:35:50;;;;;;;;;11.00;10.75;;;;;18.73;57.16;100473.44;3587887;40;13340;-47
2021/06/04 05:38:18;;;;;;;;;9.75;9.75;;;;;18.50;57.72;100473.47;3586841;40;13967;-50
2021/06/04 05:40:48;;;;;;;;;13.25;10.50;;;;;18.56;57.09;100481.16;3587329;40;14004;-51
2021/06/04 05:43:26;;;;;;;;;12.00;11.75;;;;;18.60;56.59;100485.34;3585830;40;14466;-51
2021/06/04 05:45:54;;;;;;;;;13.25;11.25;;;;;18.96;58.64;100491.47;3588242;40;13509;-51
2021/06/04 05:48:23;;;;;;;;;12.00;11.00;;;;;18.89;57.91;100486.69;3590268;39;13679;-50
2021/06/04 05:50:56;;;;;;;;;11.25;9.50;;;;;18.71;57.86;100491.75;3587820;40;13219;-51
2021/06/04 05:53:28;;;;;;;;;11.75;10.00;;;;;19.13;59.06;100502.78;3586768;40;13331;-52
2021/06/04 05:55:57;;;;;;;;;10.50;10.00;;;;;19.35;56.92;100501.81;3592431;40;13267;-50
2021/06/04 05:58:27;;;;;;;;;14.00;11.00;;;;;19.40;57.38;100495.00;3588838;39;13043;-49
2021/06/04 06:00:58;;;;;;;;;13.75;11.50;;;;;19.31;56.46;100498.50;3593980;40;13146;-48
2021/06/04 06:03:35;;;;;;;;;11.50;11.25;;;;;19.59;54.21;100497.03;3590494;39;13564;-51
2021/06/04 06:06:04;;;;;;;;;15.25;12.25;;;;;19.98;54.34;100499.13;3586544;40;12907;-48
2021/06/04 06:08:31;;;;;;;;;10.00;9.00;;;;;20.08;52.67;100500.91;3594297;40;12948;-50
2021/06/04 06:10:59;;;;;;;;;11.75;10.50;;;;;19.82;52.15;100495.03;3593386;40;12504;-48
2021/06/04 06:13:28;;;;;;;;;10.50;10.50;;;;;20.37;50.93;100506.50;3595890;40;12399;-48
2021/06/04 06:15:56;;;;;;;;;12.00;8.75;;;;;20.75;51.04;100506.81;3597172;39;12525;-50
2021/06/04 06:18:25;;;;;;;;;12.75;8.25;;;;;20.69;51.57;100499.16;3596638;39;12290;-50
2021/06/04 06:20:53;;;;;;;;;11.00;10.25;;;;;20.97;50.36;100508.44;3595737;40;12671;-48
2021/06/04 06:23:31;;;;;;;;;12.75;10.00;;;;;20.71;49.04;100508.94;3595562;40;12055;-52
2021/06/04 06:26:07;;;;;;;;;16.50;12.25;;;;;20.88;47.69;100499.22;3588086;40;11975;-52
2021/06/04 06:28:39;;;;;;;;;12.25;10.75;;;;;21.11;49.37;100502.53;3596879;39;12259;-50
2021/06/04 06:31:16;;;;;;;;;13.00;9.00;;;;;21.43;48.53;100498.69;3596131;40;11416;-50
2021/06/04 06:33:44;;;;;;;;;11.00;9.00;;;;;21.48;47.49;100510.06;3596963;39;11453;-51
2021/06/04 06:36:16;;;;;;;;;11.75;9.25;;;;;22.04;46.77;100514.72;3596404;39;11133;-52
2021/06/04 06:38:44;;;;;;;;;11.75;10.00;;;;;22.29;46.73;100517.84;3596182;39;11250;-52
2021/06/04 06:41:13;;;;;;;;;10.25;10.25;;;;;22.41;46.88;100513.91;3597584;39;10955;-48
2021/06/04 06:43:46;;;;;;;;;13.25;10.75;;;;;21.99;49.04;100519.78;3598407;39;11154;-50
2021/06/04 06:46:16;;;;;;;;;17.75;13.25;;;;;22.20;46.31;100516.03;3597966;39;10885;-51
2021/06/04 06:48:44;;;;;;;;;10.00;10.00;;;;;21.97;45.89;100518.22;3598110;39;11288;-49
2021/06/04 06:51:13;;;;;;;;;14.50;12.75;;;;;22.06;46.93;100514.56;3596692;39;10710;-50
2021/06/04 06:53:42;;;;;;;;;11.50;10.50;;;;;22.67;45.33;100522.28;3592609;39;10876;-50
2021/06/04 06:56:12;;;;;;;;;11.00;10.00;;;;;22.64;46.59;100525.31;3587012;40;11192;-54
2021/06/04 06:58:41;;;;;;;;;11.00;9.50;;;;;22.41;45.90;100522.13;3587100;40;10905;-53
2021/06/04 07:01:10;;;;;;;;;8.67;8.67;;;;;22.98;47.51;100524.72;3587668;40;10737;-51
2021/06/04 07:03:41;;;;;;;;;8.33;8.33;;;;;22.95;47.93;100528.59;3587062;40;10233;-53
2021/06/04 07:06:19;;;;;;;;;13.00;9.50;;;;;22.63;44.50;100523.59;3587861;40;10280;-52
2021/06/04 07:08:46;;;;;;;;;9.00;9.00;;;;;23.49;46.42;100525.06;3588275;40;10548;-49
2021/06/04 07:11:15;;;;;;;;;11.00;8.33;;;;;24.01;43.37;100522.41;3588331;40;10314;-52
2021/06/04 07:13:45;;;;;;;;;11.00;9.33;;;;;24.13;44.13;100531.25;3592135;40;10055;-51
2021/06/04 07:16:13;;;;;;;;;10.00;9.00;;;;;24.29;41.38;100523.97;3598359;39;10019;-48
2021/06/04 07:18:41;;;;;;;;;10.00;9.00;;;;;23.41;43.46;100526.72;3597833;39;10387;-50
2021/06/04 07:21:11;;;;;;;;;11.00;9.67;;;;;23.36;42.91;100525.47;3594829;39;9816;-50
2021/06/04 07:23:40;;;;;;;;;9.33;9.00;;;;;23.54;43.20;100525.44;3597905;39;9848;-50
2021/06/04 07:26:08;;;;;;;;;9.00;8.00;;;;;23.86;42.68;100523.00;3598035;39;9804;-48
2021/06/04 07:28:38;;;;;;;;;10.33;8.00;;;;;22.67;42.68;100521.41;3595893;40;10336;-50
2021/06/04 07:31:10;;;;;;;;;8.75;7.00;;;;;24.82;38.12;100522.00;3589843;40;9941;-51
2021/06/04 07:33:50;;;;;;;;;8.25;7.50;;;;;24.38;39.82;100535.00;3597645;39;9800;-53
2021/06/04 07:36:23;;;;;;;;;7.00;6.00;;;;;24.47;40.93;100528.56;3597125;40;9724;-51
2021/06/04 07:38:51;;;;;;;;;8.25;8.00;;;;;24.39;39.52;100525.75;3596391;39;9729;-53
2021/06/04 07:41:19;;;;;;;;;8.50;8.00;;;;;24.90;39.58;100522.03;3592526;40;10295;-53
2021/06/04 07:43:48;;;;;;;;;10.25;9.00;;;;;24.21;39.58;100523.91;3598211;39;10010;-51
2021/06/04 07:46:18;;;;;;;;;10.75;7.75;;;;;23.29;41.01;100530.69;3590281;39;9771;-53
2021/06/04 07:48:46;;;;;;;;;9.67;9.33;;;;;23.21;39.89;100526.00;3587890;40;9799;-51
2021/06/04 07:51:20;;;;;;;;;8.67;7.00;;;;;24.68;39.55;100520.75;3587699;40;9830;-51
2021/06/04 07:53:48;;;;;;;;;10.50;9.00;;;;;24.94;39.91;100528.06;3587260;40;9783;-52
2021/06/04 07:56:17;;;;;;;;;9.50;7.25;;;;;24.47;39.57;100526.69;3588157;40;9755;-51
2021/06/04 07:58:46;;;;;;;;;12.50;11.00;;;;;24.87;37.67;100521.50;3595202;40;10353;-53
2021/06/04 08:01:14;;;;;;;;;11.00;8.00;;;;;24.68;38.48;100523.50;3596849;40;9776;-49
2021/06/04 08:03:44;;;;;;;;;11.00;8.75;;;;;25.57;38.13;100527.53;3597514;39;9804;-51
2021/06/04 08:06:20;;;;;;;;;15.25;13.00;;;;;25.38;40.06;100523.22;3597996;39;9818;-59
2021/06/04 08:08:53;;;;;;;;;12.25;11.00;;;;;24.71;39.07;100523.16;3590176;40;9776;-56
2021/06/04 08:11:34;;;;;;;;;11.25;11.25;;;;;25.10;38.96;100525.38;3596579;40;9767;-55
2021/06/04 08:14:08;;;;;;;;;13.25;13.00;;;;;25.89;39.07;100528.56;3596727;40;10367;-56
2021/06/04 08:16:39;;;;;;;;;15.25;13.00;;;;;25.69;39.25;100536.28;3597596;39;9842;-57
2021/06/04 08:19:07;;;;;;;;;10.00;8.25;;;;;24.96;38.50;100528.75;3594205;39;9834;-58
2021/06/04 08:21:48;;;;;;;;;7.50;7.50;;;;;25.15;37.69;100528.50;3587408;40;10339;-58
2021/06/04 08:24:21;;;;;;;;;10.75;8.00;;;;;25.20;37.25;100528.00;3595351;40;10018;-55
2021/06/04 08:26:49;;;;;;;;;9.50;7.50;;;;;24.83;38.63;100522.88;3587651;40;10257;-58
2021/06/04 08:29:17;;;;;;;;;7.75;7.75;;;;;25.17;38.18;100525.56;3587851;40;9817;-58
2021/06/04 08:31:46;;;;;;;;;10.00;9.75;;;;;24.92;38.57;100524.63;3597343;39;9792;-58
2021/06/04 08:34:14;;;;;;;;;9.25;9.25;;;;;25.68;38.02;100522.72;3597803;39;9949;-58
2021/06/04 08:36:44;;;;;;;;;12.75;9.50;;;;;24.27;39.06;100519.66;3598063;39;9939;-57
2021/06/04 08:39:18;;;;;;;;;10.00;9.00;;;;;25.34;39.18;100523.72;3596195;39;9837;-57
2021/06/04 08:42:16;;;;;;;;;10.75;9.00;;;;;25.15;38.97;100514.75;3586664;40;9904;-55
2021/06/04 08:45:10;;;;;;;;;10.75;10.50;;;;;25.34;38.54;100523.72;3587274;40;9805;-56
2021/06/04 08:47:43;;;;;;;;;14.25;12.75;;;;;25.75;39.64;100523.72;3586767;40;9898;-58
2021/06/04 08:50:41;;;;;;;;;9.00;9.00;;;;;25.08;38.74;100510.91;3578488;40;9938;-56
2021/06/04 08:53:27;;;;;;;;;11.50;10.00;;;;;25.27;39.27;100509.78;3587632;40;10026;-56
2021/06/04 08:56:25;;;;;;;;;24.00;19.33;;;;;25.83;36.73;100512.75;3586721;40;9828;-58
2021/06/04 08:59:06;;;;;;;;;11.75;10.75;;;;;24.33;37.80;100502.56;3586822;40;10140;-56
2021/06/04 09:01:56;;;;;;;;;20.75;20.75;;;;;25.54;37.19;100505.88;3587318;40;10347;-58
2021/06/04 09:04:29;;;;;;;;;16.33;15.33;;;;;25.47;37.29;100504.81;3587422;40;10847;-57
2021/06/04 09:07:17;;;;;;;;;14.00;12.67;;;;;25.46;37.53;100502.25;3604594;39;10200;-57
2021/06/04 09:10:04;;;;;;;;;43.00;34.75;;;;;26.04;37.31;100502.06;3596698;39;10618;-57
2021/06/04 09:12:48;;;;;;;;;26.25;22.00;;;;;26.05;35.79;100502.94;3587481;40;12677;-56
2021/06/04 09:15:24;;;;;;;;;20.33;18.33;;;;;26.21;36.20;100502.03;3587212;40;10480;-57
2021/06/04 09:18:23;;;;;;;;;11.75;11.25;;;;;26.72;36.80;100499.78;3586726;40;9832;-58
2021/06/04 09:21:00;;;;;;;;;12.25;9.25;;;;;25.07;39.88;100498.22;3586243;40;9851;-58
2021/06/04 09:23:39;;;;;;;;;14.00;12.00;;;;;26.17;37.95;100495.13;3594511;40;9830;-56
2021/06/04 09:26:12;;;;;;;;;12.50;12.00;;;;;26.37;37.00;100496.47;3595820;40;9854;-55
2021/06/04 09:28:47;;;;;;;;;9.75;9.75;;;;;26.18;35.24;100494.13;3597086;39;9795;-57
2021/06/04 09:31:43;;;;;;;;;10.00;10.00;;;;;26.09;34.92;100489.66;3587020;40;9846;-58
2021/06/04 09:34:31;;;;;;;;;14.00;11.75;;;;;26.59;34.03;100486.59;3587485;40;9887;-56
2021/06/04 09:37:19;;;;;;;;;23.67;20.00;;;;;26.76;35.07;100490.13;3593663;40;10331;-51
2021/06/04 09:39:53;;;;;;;;;17.25;15.00;;;;;27.26;34.57;100483.31;3596402;39;9862;-58
2021/06/04 09:42:28;;;;;;;;;9.25;9.25;;;;;26.30;33.65;100484.44;3594264;39;10012;-58
2021/06/04 09:45:12;;;;;;;;;9.25;9.25;;;;;25.35;37.18;100473.19;3586857;40;9795;-58
2021/06/04 09:47:47;;;;;;;;;12.50;10.00;;;;;26.19;36.01;100484.81;3592504;40;9972;-58
2021/06/04 09:50:17;;;;;;;;;66.25;39.25;;;;;27.50;35.05;100487.78;3586315;40;10344;-52
2021/06/04 09:52:47;;;;;;;;;12.25;11.00;;;;;25.51;37.03;100475.94;3586979;40;12134;-58
2021/06/04 09:55:21;;;;;;;;;249.67;156.33;;;;;25.36;37.30;100466.69;3585799;40;9946;-57
2021/06/04 09:58:07;;;;;;;;;15.00;12.67;;;;;26.34;37.54;100468.44;3587986;40;9884;-55
2021/06/04 10:00:57;;;;;;;;;10.25;8.00;;;;;27.07;35.06;100481.88;3587244;40;9823;-57
2021/06/04 10:03:29;;;;;;;;;11.50;11.00;;;;;26.36;34.82;100471.88;3587012;40;10443;-58
2021/06/04 10:06:06;;;;;;;;;10.75;10.75;;;;;25.73;36.06;100465.28;3586066;40;9883;-59
2021/06/04 10:08:55;;;;;;;;;10.00;10.00;;;;;26.36;34.52;100467.22;3587454;40;10304;-57
2021/06/04 10:11:27;;;;;;;;;13.50;11.00;;;;;27.13;34.42;100469.25;3586541;40;9833;-59
2021/06/04 10:14:23;;;;;;;;;10.00;10.00;;;;;27.70;32.74;100474.34;3596609;40;9821;-58
2021/06/04 10:17:02;;;;;;;;;10.00;10.00;;;;;26.89;34.20;100473.03;3597030;39;9801;-56
2021/06/04 10:19:39;;;;;;;;;11.00;10.25;;;;;26.51;33.76;100456.28;3596414;40;9876;-55
2021/06/04 10:22:14;;;;;;;;;13.00;11.25;;;;;25.11;36.51;100461.13;3596077;39;9901;-56
2021/06/04 10:24:48;;;;;;;;;13.50;9.75;;;;;24.78;38.10;100451.09;3596783;39;9875;-56
2021/06/04 10:27:39;;;;;;;;;10.75;10.75;;;;;25.07;37.23;100448.75;3590377;39;9953;-56
2021/06/04 10:30:21;;;;;;;;;10.25;8.25;;;;;24.60;37.42;100446.59;3592617;40;9828;-54
2021/06/04 10:32:54;;;;;;;;;10.50;9.50;;;;;25.85;34.19;100447.41;3596594;39;9849;-55
2021/06/04 10:36:03;;;;;;;;;13.00;13.00;;;;;24.86;36.33;100440.16;3597292;39;9914;-56
2021/06/04 10:38:40;;;;;;;;;11.67;10.67;;;;;24.43;36.76;100440.13;3597045;39;9808;-58
2021/06/04 10:41:13;;;;;;;;;12.33;12.33;;;;;24.40;38.06;100429.50;3595750;40;9802;-56
2021/06/04 10:43:52;;;;;;;;;11.33;11.33;;;;;24.98;37.50;100434.13;3596885;39;9953;-55
2021/06/04 10:46:52;;;;;;;;;12.00;9.67;;;;;26.68;35.23;100443.34;3596903;39;10026;-57
2021/06/04 10:49:31;;;;;;;;;28.33;22.00;;;;;26.91;34.37;100438.72;3596049;40;9838;-58
2021/06/04 10:52:13;;;;;;;;;12.75;12.25;;;;;26.17;34.54;100429.06;3596374;39;10328;-56
2021/06/04 10:55:11;;;;;;;;;13.75;12.25;;;;;25.02;37.36;100426.44;3586825;40;10041;-56
2021/06/04 10:57:47;;;;;;;;;12.25;11.00;;;;;24.95;36.77;100428.13;3585542;40;9867;-55
2021/06/04 11:00:28;;;;;;;;;12.25;10.75;;;;;24.45;37.35;100420.78;3588984;40;9846;-55
2021/06/04 11:03:20;;;;;;;;;13.00;10.67;;;;;24.57;39.37;100424.97;3595661;40;9758;-55
2021/06/04 11:06:24;;;;;;;;;13.00;13.00;;;;;24.23;37.66;100416.75;3596791;39;10280;-55
2021/06/04 11:09:04;;;;;;;;;14.67;11.00;;;;;25.99;37.48;100427.44;3596355;39;10027;-57
2021/06/04 11:11:59;;;;;;;;;11.67;11.67;;;;;26.49;34.62;100426.19;3596997;39;9964;-58
2021/06/04 11:14:54;;;;;;;;;13.00;12.00;;;;;26.89;34.54;100421.50;3586619;39;9807;-57
2021/06/04 11:17:28;;;;;;;;;12.00;12.00;;;;;26.60;34.09;100415.84;3586437;40;9999;-59
2021/06/04 11:20:08;;;;;;;;;14.75;13.00;;;;;26.55;33.69;100415.53;3586224;40;9847;-58
2021/06/04 11:22:47;;;;;;;;;11.25;11.25;;;;;26.45;33.26;100413.81;3595586;40;9857;-57
2021/06/04 11:25:46;;;;;;;;;12.25;11.00;;;;;27.31;33.42;100420.19;3596387;39;10043;-59
2021/06/04 11:28:40;;;;;;;;;46.75;39.25;;;;;26.27;34.82;100402.19;3597051;39;10410;-59
2021/06/04 11:31:29;;;;;;;;;24.33;20.00;;;;;26.32;34.06;100409.94;3587173;40;12332;-58
2021/06/04 11:34:05;;;;;;;;;11.00;11.00;;;;;25.78;34.98;100405.09;3587377;40;9805;-58
2021/06/04 11:36:43;;;;;;;;;14.50;13.75;;;;;25.35;37.02;100401.72;3587013;40;9891;-57
2021/06/04 11:39:31;;;;;;;;;13.00;10.67;;;;;25.39;36.58;100400.34;3594988;40;9912;-58
2021/06/04 11:42:05;;;;;;;;;21.67;19.33;;;;;25.53;36.56;100399.63;3585428;40;9819;-57
2021/06/04 11:45:23;;;;;;;;;19.00;17.00;;;;;25.31;35.87;100400.34;3588948;40;10399;-58
2021/06/04 11:47:51;;;;;;;;;13.00;12.33;;;;;25.62;35.46;100395.84;3596994;39;10361;-58
2021/06/04 11:50:37;;;;;;;;;14.33;11.67;;;;;26.19;34.84;100397.56;3595827;39;10165;-58
2021/06/04 11:53:25;;;;;;;;;14.25;12.25;;;;;25.82;34.24;100400.94;3589469;40;10060;-58
2021/06/04 11:56:41;;;;;;;;;16.00;15.00;;;;;26.80;32.96;100397.78;3591001;40;9946;-59